createdAt,value
2022-12-02T00:17:13.278Z,55.20
2022-12-02T00:37:15.419Z,57.47
2022-12-02T00:57:17.351Z,58.58
2022-12-02T01:17:19.744Z,49.72
2022-12-02T01:37:21.392Z,58.53
2022-12-02T01:57:23.900Z,54.15
2022-12-02T02:17:25.672Z,56.70
2022-12-02T02:37:27.827Z,58.47
2022-12-02T02:57:31.195Z,58.70
2022-12-02T03:17:33.301Z,51.95
2022-12-02T03:37:34.947Z,60.33
2022-12-02T03:57:37.113Z,57.72
2022-12-02T04:17:38.762Z,50.33
2022-12-02T04:37:40.963Z,55.72
2022-12-02T04:57:43.368Z,53.17
2022-12-02T05:17:45.386Z,59.28
2022-12-02T05:37:47.104Z,57.80
2022-12-02T05:57:49.998Z,69.47
2022-12-02T06:17:51.635Z,59.83
2022-12-02T06:37:53.805Z,58.72
2022-12-02T06:57:55.283Z,40.17
2022-12-02T07:17:59.119Z,45.00
2022-12-02T07:38:00.596Z,46.47
2022-12-02T07:58:04.064Z,47.45
2022-12-02T08:18:06.270Z,45.35
2022-12-02T08:38:08.468Z,46.90
2022-12-02T08:58:10.093Z,42.40
2022-12-02T09:18:14.550Z,43.38
2022-12-02T09:38:16.528Z,48.75
2022-12-02T09:58:19.528Z,51.80
2022-12-02T10:18:21.940Z,51.92
2022-12-02T10:38:23.996Z,52.92
2022-12-02T10:58:25.464Z,51.40
2022-12-02T11:18:28.047Z,50.00
2022-12-02T11:38:29.854Z,73.50
2022-12-02T11:58:31.972Z,59.22
2022-12-02T12:18:34.073Z,65.55
2022-12-02T12:38:36.103Z,43.55
2022-12-02T12:58:37.584Z,39.95
2022-12-02T13:18:39.874Z,50.03
2022-12-02T13:38:41.352Z,41.25
2022-12-02T13:58:43.612Z,30.10
2022-12-02T14:18:45.620Z,27.77
2022-12-02T14:38:47.665Z,26.02
2022-12-02T14:58:49.294Z,23.85
2022-12-02T15:18:51.745Z,22.55
2022-12-02T15:38:53.527Z,24.55
2022-12-02T15:58:55.807Z,28.52
2022-12-02T16:18:57.888Z,30.52
2022-12-02T16:38:59.917Z,34.40
2022-12-02T16:59:01.560Z,34.53
2022-12-02T17:19:03.887Z,35.55
2022-12-02T17:39:05.504Z,31.73
2022-12-02T17:59:07.699Z,33.58
2022-12-02T18:19:09.227Z,41.20
2022-12-02T18:39:11.695Z,47.20
2022-12-02T18:59:13.285Z,46.10
2022-12-02T19:19:15.478Z,59.22
2022-12-02T19:39:17.334Z,60.53
2022-12-02T19:59:19.381Z,82.40
2022-12-02T20:19:21.041Z,73.28
2022-12-02T20:39:23.315Z,82.60
2022-12-02T20:59:25.129Z,64.53
2022-12-02T21:19:27.248Z,76.68
2022-12-02T21:39:28.761Z,104.57
